sensor_id;sensor_type;location;lat;lon;timestamp;pressure;altitude;pressure_sealevel;temperature;humidity
78121;BME280;67585;44.802;10.332;2023-12-20T00:02:07;101182.97;;;6.75;66.35
78121;BME280;67585;44.802;10.332;2023-12-20T00:04:32;101163.19;;;6.51;66.41
78121;BME280;67585;44.802;10.332;2023-12-20T00:06:57;101189.16;;;6.75;66.47
78121;BME280;67585;44.802;10.332;2023-12-20T00:09:23;101175.63;;;6.89;66.17
78121;BME280;67585;44.802;10.332;2023-12-20T00:11:48;101162.25;;;6.63;67.07
78121;BME280;67585;44.802;10.332;2023-12-20T00:14:13;101137.25;;;6.51;66.57
78121;BME280;67585;44.802;10.332;2023-12-20T00:16:39;101161.06;;;6.59;66.50
78121;BME280;67585;44.802;10.332;2023-12-20T00:19:04;101158.91;;;6.43;67.03
78121;BME280;67585;44.802;10.332;2023-12-20T00:21:29;101148.88;;;6.63;66.92
78121;BME280;67585;44.802;10.332;2023-12-20T00:23:55;101114.63;;;6.47;65.98
78121;BME280;67585;44.802;10.332;2023-12-20T00:26:20;101128.13;;;6.59;66.63
78121;BME280;67585;44.802;10.332;2023-12-20T00:28:45;101132.41;;;6.60;66.56
78121;BME280;67585;44.802;10.332;2023-12-20T00:31:11;101131.75;;;6.46;66.38
78121;BME280;67585;44.802;10.332;2023-12-20T00:33:36;101149.34;;;6.79;66.20
78121;BME280;67585;44.802;10.332;2023-12-20T00:36:02;101142.09;;;6.61;66.15
78121;BME280;67585;44.802;10.332;2023-12-20T00:38:27;101125.59;;;6.64;66.07
78121;BME280;67585;44.802;10.332;2023-12-20T00:40:52;101125.03;;;6.37;66.79
78121;BME280;67585;44.802;10.332;2023-12-20T00:43:18;101128.31;;;6.39;67.93
78121;BME280;67585;44.802;10.332;2023-12-20T00:45:43;101128.69;;;6.86;66.70
78121;BME280;67585;44.802;10.332;2023-12-20T00:48:08;101128.50;;;6.62;66.94
78121;BME280;67585;44.802;10.332;2023-12-20T00:50:34;101103.06;;;6.28;67.38
78121;BME280;67585;44.802;10.332;2023-12-20T00:52:59;101094.19;;;6.53;66.64
78121;BME280;67585;44.802;10.332;2023-12-20T00:55:24;101098.56;;;6.91;66.26
78121;BME280;67585;44.802;10.332;2023-12-20T00:57:50;101081.03;;;6.95;65.52
78121;BME280;67585;44.802;10.332;2023-12-20T01:00:15;101092.66;;;6.82;66.06
78121;BME280;67585;44.802;10.332;2023-12-20T01:02:41;101076.66;;;6.38;66.33
78121;BME280;67585;44.802;10.332;2023-12-20T01:05:06;101084.63;;;6.82;65.89
78121;BME280;67585;44.802;10.332;2023-12-20T01:07:32;101089.78;;;6.83;65.90
78121;BME280;67585;44.802;10.332;2023-12-20T01:09:58;101086.41;;;6.70;66.36
78121;BME280;67585;44.802;10.332;2023-12-20T01:12:23;101084.63;;;6.63;66.19
78121;BME280;67585;44.802;10.332;2023-12-20T01:14:48;101064.84;;;6.64;66.34
78121;BME280;67585;44.802;10.332;2023-12-20T01:17:14;101086.34;;;6.58;66.09
78121;BME280;67585;44.802;10.332;2023-12-20T01:19:39;101071.66;;;6.42;66.71
78121;BME280;67585;44.802;10.332;2023-12-20T01:22:04;101093.50;;;6.82;65.91
78121;BME280;67585;44.802;10.332;2023-12-20T01:24:30;101082.56;;;6.40;66.76
78121;BME280;67585;44.802;10.332;2023-12-20T01:26:55;101061.16;;;6.40;66.78
78121;BME280;67585;44.802;10.332;2023-12-20T01:29:21;101061.25;;;6.34;66.90
78121;BME280;67585;44.802;10.332;2023-12-20T01:31:46;101064.41;;;6.49;67.06
78121;BME280;67585;44.802;10.332;2023-12-20T01:34:12;101066.84;;;6.51;67.17
78121;BME280;67585;44.802;10.332;2023-12-20T01:36:37;101052.72;;;6.62;66.59
78121;BME280;67585;44.802;10.332;2023-12-20T01:39:03;101062.19;;;6.83;66.43
78121;BME280;67585;44.802;10.332;2023-12-20T01:41:28;101051.19;;;6.73;66.09
78121;BME280;67585;44.802;10.332;2023-12-20T01:43:53;101041.69;;;6.33;66.56
78121;BME280;67585;44.802;10.332;2023-12-20T01:46:20;101059.16;;;6.36;67.64
78121;BME280;67585;44.802;10.332;2023-12-20T01:48:46;101038.69;;;6.67;66.82
78121;BME280;67585;44.802;10.332;2023-12-20T01:51:12;101035.81;;;6.43;66.48
78121;BME280;67585;44.802;10.332;2023-12-20T01:53:39;101045.78;;;6.36;66.77
78121;BME280;67585;44.802;10.332;2023-12-20T01:56:05;101036.41;;;6.70;66.64
78121;BME280;67585;44.802;10.332;2023-12-20T01:58:31;101015.69;;;6.40;66.27
78121;BME280;67585;44.802;10.332;2023-12-20T02:00:57;101032.63;;;6.53;66.63
78121;BME280;67585;44.802;10.332;2023-12-20T02:03:23;101028.88;;;6.60;66.36
78121;BME280;67585;44.802;10.332;2023-12-20T02:05:49;101031.69;;;6.47;66.20
78121;BME280;67585;44.802;10.332;2023-12-20T02:08:15;101044.25;;;6.47;66.70
78121;BME280;67585;44.802;10.332;2023-12-20T02:10:40;101043.78;;;6.50;67.18
78121;BME280;67585;44.802;10.332;2023-12-20T02:13:06;101008.84;;;6.45;66.39
78121;BME280;67585;44.802;10.332;2023-12-20T02:15:31;101007.75;;;6.52;66.46
78121;BME280;67585;44.802;10.332;2023-12-20T02:17:56;101025.59;;;6.58;65.25
78121;BME280;67585;44.802;10.332;2023-12-20T02:20:22;101025.22;;;6.55;66.16
78121;BME280;67585;44.802;10.332;2023-12-20T02:22:47;101012.06;;;6.53;65.72
78121;BME280;67585;44.802;10.332;2023-12-20T02:25:13;101026.31;;;6.47;66.01
78121;BME280;67585;44.802;10.332;2023-12-20T02:27:39;101008.91;;;6.19;66.13
78121;BME280;67585;44.802;10.332;2023-12-20T02:30:05;101016.94;;;6.38;66.79
78121;BME280;67585;44.802;10.332;2023-12-20T02:32:31;101010.84;;;6.31;66.15
78121;BME280;67585;44.802;10.332;2023-12-20T02:34:57;101008.84;;;6.45;65.86
78121;BME280;67585;44.802;10.332;2023-12-20T02:37:22;101017.75;;;6.20;66.11
78121;BME280;67585;44.802;10.332;2023-12-20T02:39:48;101029.56;;;6.31;66.86
78121;BME280;67585;44.802;10.332;2023-12-20T02:42:13;101036.16;;;6.28;67.34
78121;BME280;67585;44.802;10.332;2023-12-20T02:44:38;101024.31;;;6.24;67.41
78121;BME280;67585;44.802;10.332;2023-12-20T02:47:04;101042.47;;;6.15;67.49
78121;BME280;67585;44.802;10.332;2023-12-20T02:49:29;101037.22;;;6.27;67.95
78121;BME280;67585;44.802;10.332;2023-12-20T02:51:55;101021.84;;;6.23;67.20
78121;BME280;67585;44.802;10.332;2023-12-20T02:54:20;101027.78;;;6.43;67.13
78121;BME280;67585;44.802;10.332;2023-12-20T02:56:46;101012.34;;;6.27;66.72
78121;BME280;67585;44.802;10.332;2023-12-20T02:59:11;101018.19;;;6.35;66.82
78121;BME280;67585;44.802;10.332;2023-12-20T03:01:44;101015.22;;;6.25;67.06
78121;BME280;67585;44.802;10.332;2023-12-20T03:04:10;100996.50;;;6.25;66.99
78121;BME280;67585;44.802;10.332;2023-12-20T03:06:36;101003.19;;;6.34;67.80
78121;BME280;67585;44.802;10.332;2023-12-20T03:09:01;100981.25;;;6.26;67.83
78121;BME280;67585;44.802;10.332;2023-12-20T03:11:27;100935.25;;;5.92;67.16
78121;BME280;67585;44.802;10.332;2023-12-20T03:13:53;100994.22;;;6.04;68.17
78121;BME280;67585;44.802;10.332;2023-12-20T03:16:18;100979.59;;;5.81;68.17
78121;BME280;67585;44.802;10.332;2023-12-20T03:18:44;100961.63;;;5.88;67.85
78121;BME280;67585;44.802;10.332;2023-12-20T03:21:09;100971.25;;;5.96;67.23
78121;BME280;67585;44.802;10.332;2023-12-20T03:23:34;100953.88;;;5.80;67.85
78121;BME280;67585;44.802;10.332;2023-12-20T03:26:00;100950.34;;;5.86;67.17
78121;BME280;67585;44.802;10.332;2023-12-20T03:28:29;100951.66;;;5.52;67.88
78121;BME280;67585;44.802;10.332;2023-12-20T03:30:55;100919.22;;;5.73;68.13
78121;BME280;67585;44.802;10.332;2023-12-20T03:33:20;100948.34;;;5.25;68.39
78121;BME280;67585;44.802;10.332;2023-12-20T03:35:45;100950.22;;;5.24;69.74
78121;BME280;67585;44.802;10.332;2023-12-20T03:38:11;100954.88;;;5.29;69.30
78121;BME280;67585;44.802;10.332;2023-12-20T03:40:36;100948.69;;;5.60;68.49
78121;BME280;67585;44.802;10.332;2023-12-20T03:43:02;100928.84;;;5.49;68.15
78121;BME280;67585;44.802;10.332;2023-12-20T03:45:27;100929.00;;;5.79;67.92
78121;BME280;67585;44.802;10.332;2023-12-20T03:47:52;100937.69;;;5.75;67.46
78121;BME280;67585;44.802;10.332;2023-12-20T03:50:25;100929.28;;;5.71;67.52
78121;BME280;67585;44.802;10.332;2023-12-20T03:52:51;100936.66;;;5.76;67.53
78121;BME280;67585;44.802;10.332;2023-12-20T03:55:16;100937.94;;;5.92;66.75
78121;BME280;67585;44.802;10.332;2023-12-20T03:57:42;100947.72;;;5.54;67.36
78121;BME280;67585;44.802;10.332;2023-12-20T04:00:08;100938.16;;;5.40;68.28
78121;BME280;67585;44.802;10.332;2023-12-20T04:02:37;100916.03;;;5.58;68.10
78121;BME280;67585;44.802;10.332;2023-12-20T04:05:03;100913.34;;;5.58;67.76
78121;BME280;67585;44.802;10.332;2023-12-20T04:07:28;100930.75;;;5.67;67.95
78121;BME280;67585;44.802;10.332;2023-12-20T04:09:54;100933.38;;;5.49;68.61
78121;BME280;67585;44.802;10.332;2023-12-20T04:12:20;100928.50;;;5.89;67.68
78121;BME280;67585;44.802;10.332;2023-12-20T04:14:46;100927.47;;;5.90;67.31
78121;BME280;67585;44.802;10.332;2023-12-20T04:17:11;100927.25;;;5.92;67.03
78121;BME280;67585;44.802;10.332;2023-12-20T04:19:37;100926.81;;;5.70;67.64
78121;BME280;67585;44.802;10.332;2023-12-20T04:22:02;100938.66;;;5.55;68.29
78121;BME280;67585;44.802;10.332;2023-12-20T04:24:27;100902.13;;;5.24;68.95
78121;BME280;67585;44.802;10.332;2023-12-20T04:26:53;100920.28;;;5.41;68.84
78121;BME280;67585;44.802;10.332;2023-12-20T04:29:18;100904.03;;;5.42;69.74
78121;BME280;67585;44.802;10.332;2023-12-20T04:31:44;100890.47;;;5.44;70.05
78121;BME280;67585;44.802;10.332;2023-12-20T04:34:09;100910.84;;;5.88;70.67
78121;BME280;67585;44.802;10.332;2023-12-20T04:36:34;100851.84;;;5.65;69.92
78121;BME280;67585;44.802;10.332;2023-12-20T04:39:00;100877.44;;;5.54;68.74
78121;BME280;67585;44.802;10.332;2023-12-20T04:41:26;100903.53;;;6.02;68.48
78121;BME280;67585;44.802;10.332;2023-12-20T04:43:52;100909.03;;;6.07;67.95
78121;BME280;67585;44.802;10.332;2023-12-20T04:46:18;100893.88;;;5.76;67.89
78121;BME280;67585;44.802;10.332;2023-12-20T04:48:43;100877.84;;;5.76;68.16
78121;BME280;67585;44.802;10.332;2023-12-20T04:51:08;100894.25;;;6.05;68.14
78121;BME280;67585;44.802;10.332;2023-12-20T04:53:34;100897.44;;;6.13;67.71
78121;BME280;67585;44.802;10.332;2023-12-20T04:55:59;100884.25;;;5.93;67.50
78121;BME280;67585;44.802;10.332;2023-12-20T04:58:25;100882.19;;;5.70;68.32
78121;BME280;67585;44.802;10.332;2023-12-20T05:00:50;100889.03;;;5.41;69.51
78121;BME280;67585;44.802;10.332;2023-12-20T05:03:16;100876.28;;;5.68;68.96
78121;BME280;67585;44.802;10.332;2023-12-20T05:05:41;100898.28;;;5.89;68.50
78121;BME280;67585;44.802;10.332;2023-12-20T05:08:06;100896.63;;;6.13;68.04
78121;BME280;67585;44.802;10.332;2023-12-20T05:10:32;100904.13;;;6.04;68.17
78121;BME280;67585;44.802;10.332;2023-12-20T05:12:57;100881.66;;;5.87;67.72
78121;BME280;67585;44.802;10.332;2023-12-20T05:15:22;100895.25;;;5.85;68.35
78121;BME280;67585;44.802;10.332;2023-12-20T05:17:48;100895.28;;;6.04;67.73
78121;BME280;67585;44.802;10.332;2023-12-20T05:20:13;100885.09;;;5.94;68.62
78121;BME280;67585;44.802;10.332;2023-12-20T05:22:38;100875.75;;;6.03;67.36
78121;BME280;67585;44.802;10.332;2023-12-20T05:25:04;100848.44;;;5.76;68.35
78121;BME280;67585;44.802;10.332;2023-12-20T05:27:30;100861.53;;;5.84;68.03
78121;BME280;67585;44.802;10.332;2023-12-20T05:29:55;100869.53;;;5.41;69.15
78121;BME280;67585;44.802;10.332;2023-12-20T05:32:23;100879.94;;;5.74;68.82
78121;BME280;67585;44.802;10.332;2023-12-20T05:34:48;100846.25;;;5.48;68.11
78121;BME280;67585;44.802;10.332;2023-12-20T05:37:13;100888.94;;;5.54;68.67
78121;BME280;67585;44.802;10.332;2023-12-20T05:39:39;100892.69;;;5.72;68.04
78121;BME280;67585;44.802;10.332;2023-12-20T05:42:04;100891.91;;;5.46;68.80
78121;BME280;67585;44.802;10.332;2023-12-20T05:44:30;100892.56;;;5.42;68.46
78121;BME280;67585;44.802;10.332;2023-12-20T05:46:55;100849.09;;;5.28;69.13
78121;BME280;67585;44.802;10.332;2023-12-20T05:49:20;100878.25;;;5.54;68.49
78121;BME280;67585;44.802;10.332;2023-12-20T05:51:47;100867.94;;;5.33;68.68
78121;BME280;67585;44.802;10.332;2023-12-20T05:54:12;100876.03;;;5.51;68.44
78121;BME280;67585;44.802;10.332;2023-12-20T05:56:38;100878.03;;;5.56;70.32
78121;BME280;67585;44.802;10.332;2023-12-20T05:59:03;100850.41;;;5.44;69.82
78121;BME280;67585;44.802;10.332;2023-12-20T06:01:29;100871.75;;;5.69;70.37
78121;BME280;67585;44.802;10.332;2023-12-20T06:03:54;100873.97;;;5.53;69.34
78121;BME280;67585;44.802;10.332;2023-12-20T06:06:19;100863.28;;;5.72;69.34
78121;BME280;67585;44.802;10.332;2023-12-20T06:08:45;100878.91;;;5.93;69.41
78121;BME280;67585;44.802;10.332;2023-12-20T06:11:10;100865.59;;;5.68;68.94
78121;BME280;67585;44.802;10.332;2023-12-20T06:13:36;100868.84;;;5.70;69.19
78121;BME280;67585;44.802;10.332;2023-12-20T06:16:01;100858.25;;;5.82;68.15
78121;BME280;67585;44.802;10.332;2023-12-20T06:18:26;100862.84;;;5.75;68.37
78121;BME280;67585;44.802;10.332;2023-12-20T06:20:52;100860.03;;;5.88;68.94
78121;BME280;67585;44.802;10.332;2023-12-20T06:23:17;100842.28;;;5.75;68.36
78121;BME280;67585;44.802;10.332;2023-12-20T06:25:44;100835.38;;;5.86;67.67
78121;BME280;67585;44.802;10.332;2023-12-20T06:28:09;100849.69;;;5.98;68.05
78121;BME280;67585;44.802;10.332;2023-12-20T06:30:35;100836.09;;;6.00;67.41
78121;BME280;67585;44.802;10.332;2023-12-20T06:33:01;100842.03;;;6.20;67.52
78121;BME280;67585;44.802;10.332;2023-12-20T06:35:26;100836.25;;;5.80;68.48
78121;BME280;67585;44.802;10.332;2023-12-20T06:37:51;100822.69;;;5.82;68.18
78121;BME280;67585;44.802;10.332;2023-12-20T06:40:17;100845.28;;;5.86;68.95
78121;BME280;67585;44.802;10.332;2023-12-20T06:42:43;100842.47;;;5.99;69.04
78121;BME280;67585;44.802;10.332;2023-12-20T06:45:09;100839.28;;;6.09;68.35
78121;BME280;67585;44.802;10.332;2023-12-20T06:47:35;100781.03;;;5.74;68.15
78121;BME280;67585;44.802;10.332;2023-12-20T06:50:00;100837.31;;;8.12;70.16
78121;BME280;67585;44.802;10.332;2023-12-20T06:52:26;100833.97;;;7.93;64.93
78121;BME280;67585;44.802;10.332;2023-12-20T06:54:52;100833.25;;;6.62;65.89
78121;BME280;67585;44.802;10.332;2023-12-20T06:57:17;100855.38;;;6.39;67.20
78121;BME280;67585;44.802;10.332;2023-12-20T06:59:43;100840.78;;;6.05;68.11
78121;BME280;67585;44.802;10.332;2023-12-20T07:02:09;100838.31;;;6.03;68.71
78121;BME280;67585;44.802;10.332;2023-12-20T07:04:39;100860.06;;;6.25;68.20
78121;BME280;67585;44.802;10.332;2023-12-20T07:07:05;100843.34;;;6.11;69.50
78121;BME280;67585;44.802;10.332;2023-12-20T07:09:30;100832.13;;;5.84;69.37
78121;BME280;67585;44.802;10.332;2023-12-20T07:11:56;100862.44;;;5.96;69.41
78121;BME280;67585;44.802;10.332;2023-12-20T07:14:21;100890.22;;;6.14;69.34
78121;BME280;67585;44.802;10.332;2023-12-20T07:16:47;100873.78;;;5.92;69.50
78121;BME280;67585;44.802;10.332;2023-12-20T07:19:12;100848.88;;;5.98;69.65
78121;BME280;67585;44.802;10.332;2023-12-20T07:21:38;100883.28;;;6.31;69.09
78121;BME280;67585;44.802;10.332;2023-12-20T07:24:03;100883.25;;;6.13;69.49
78121;BME280;67585;44.802;10.332;2023-12-20T07:26:28;100889.28;;;6.08;69.30
78121;BME280;67585;44.802;10.332;2023-12-20T07:28:54;100892.03;;;6.38;68.42
78121;BME280;67585;44.802;10.332;2023-12-20T07:31:19;100868.03;;;6.32;68.37
78121;BME280;67585;44.802;10.332;2023-12-20T07:33:45;100875.66;;;6.47;68.00
78121;BME280;67585;44.802;10.332;2023-12-20T07:36:11;100881.47;;;6.44;68.18
78121;BME280;67585;44.802;10.332;2023-12-20T07:38:37;100890.59;;;6.54;67.27
78121;BME280;67585;44.802;10.332;2023-12-20T07:41:02;100894.66;;;6.57;67.83
78121;BME280;67585;44.802;10.332;2023-12-20T07:43:28;100898.41;;;6.56;67.81
78121;BME280;67585;44.802;10.332;2023-12-20T07:45:53;100898.47;;;6.49;68.59
78121;BME280;67585;44.802;10.332;2023-12-20T07:48:19;100862.59;;;6.38;67.85
78121;BME280;67585;44.802;10.332;2023-12-20T07:50:44;100888.38;;;6.33;67.33
78121;BME280;67585;44.802;10.332;2023-12-20T07:53:10;100895.19;;;6.47;68.42
78121;BME280;67585;44.802;10.332;2023-12-20T07:55:35;100900.47;;;6.35;67.75
78121;BME280;67585;44.802;10.332;2023-12-20T07:58:00;100902.22;;;6.48;67.82
78121;BME280;67585;44.802;10.332;2023-12-20T08:00:26;100904.19;;;6.53;67.65
78121;BME280;67585;44.802;10.332;2023-12-20T08:02:52;100886.72;;;6.50;67.11
78121;BME280;67585;44.802;10.332;2023-12-20T08:05:18;100904.78;;;6.55;67.46
78121;BME280;67585;44.802;10.332;2023-12-20T08:07:43;100899.59;;;6.41;67.69
78121;BME280;67585;44.802;10.332;2023-12-20T08:10:09;100912.44;;;6.33;68.43
78121;BME280;67585;44.802;10.332;2023-12-20T08:12:34;100894.31;;;6.35;68.20
78121;BME280;67585;44.802;10.332;2023-12-20T08:15:00;100913.25;;;6.52;67.97
78121;BME280;67585;44.802;10.332;2023-12-20T08:17:26;100892.97;;;6.26;67.40
78121;BME280;67585;44.802;10.332;2023-12-20T08:19:51;100903.31;;;6.40;68.06
78121;BME280;67585;44.802;10.332;2023-12-20T08:22:17;100910.59;;;6.52;68.35
78121;BME280;67585;44.802;10.332;2023-12-20T08:24:42;100892.75;;;6.46;67.86
78121;BME280;67585;44.802;10.332;2023-12-20T08:27:08;100893.94;;;6.50;66.89
78121;BME280;67585;44.802;10.332;2023-12-20T08:29:35;100911.66;;;6.51;67.44
78121;BME280;67585;44.802;10.332;2023-12-20T08:32:01;100910.50;;;6.58;67.01
78121;BME280;67585;44.802;10.332;2023-12-20T08:34:26;100912.94;;;6.78;66.36
78121;BME280;67585;44.802;10.332;2023-12-20T08:36:52;100914.94;;;6.83;66.77
78121;BME280;67585;44.802;10.332;2023-12-20T08:39:17;100914.97;;;6.95;66.36
78121;BME280;67585;44.802;10.332;2023-12-20T08:41:43;100920.94;;;6.97;66.36
78121;BME280;67585;44.802;10.332;2023-12-20T08:44:09;100907.97;;;6.94;65.88
78121;BME280;67585;44.802;10.332;2023-12-20T08:46:35;100923.78;;;6.83;65.46
78121;BME280;67585;44.802;10.332;2023-12-20T08:49:01;100922.59;;;6.79;65.73
78121;BME280;67585;44.802;10.332;2023-12-20T08:51:26;100943.91;;;6.86;66.08
78121;BME280;67585;44.802;10.332;2023-12-20T08:53:52;100914.34;;;6.81;65.95
78121;BME280;67585;44.802;10.332;2023-12-20T08:56:18;100917.06;;;6.93;66.30
78121;BME280;67585;44.802;10.332;2023-12-20T08:58:45;100922.22;;;7.06;65.89
78121;BME280;67585;44.802;10.332;2023-12-20T09:01:10;100920.69;;;6.98;65.19
78121;BME280;67585;44.802;10.332;2023-12-20T09:03:36;100919.75;;;6.93;65.79
78121;BME280;67585;44.802;10.332;2023-12-20T09:06:01;100906.47;;;6.98;65.63
78121;BME280;67585;44.802;10.332;2023-12-20T09:08:27;100888.38;;;6.81;65.61
78121;BME280;67585;44.802;10.332;2023-12-20T09:10:52;100884.00;;;6.87;65.67
78121;BME280;67585;44.802;10.332;2023-12-20T09:13:17;100909.19;;;7.10;66.56
78121;BME280;67585;44.802;10.332;2023-12-20T09:15:43;100900.50;;;7.26;65.26
78121;BME280;67585;44.802;10.332;2023-12-20T09:18:08;100876.16;;;7.27;65.61
78121;BME280;67585;44.802;10.332;2023-12-20T09:20:34;100887.38;;;7.48;65.33
78121;BME280;67585;44.802;10.332;2023-12-20T09:23:00;100844.31;;;7.07;64.63
78121;BME280;67585;44.802;10.332;2023-12-20T09:25:25;100854.25;;;7.19;64.72
78121;BME280;67585;44.802;10.332;2023-12-20T09:27:52;100886.28;;;7.25;64.91
78121;BME280;67585;44.802;10.332;2023-12-20T09:30:18;100868.47;;;7.31;64.34
78121;BME280;67585;44.802;10.332;2023-12-20T09:32:43;100878.25;;;7.37;64.80
78121;BME280;67585;44.802;10.332;2023-12-20T09:35:09;100882.38;;;7.63;63.87
78121;BME280;67585;44.802;10.332;2023-12-20T09:37:34;100839.59;;;7.33;64.45
78121;BME280;67585;44.802;10.332;2023-12-20T09:40:00;100867.91;;;7.64;64.77
78121;BME280;67585;44.802;10.332;2023-12-20T09:45:20;100874.78;;;7.84;65.43
78121;BME280;67585;44.802;10.332;2023-12-20T09:47:55;100861.72;;;7.87;64.72
78121;BME280;67585;44.802;10.332;2023-12-20T09:50:22;100839.47;;;7.87;64.51
78121;BME280;67585;44.802;10.332;2023-12-20T09:52:52;100857.66;;;7.97;64.69
78121;BME280;67585;44.802;10.332;2023-12-20T09:55:18;100831.53;;;7.80;63.41
78121;BME280;67585;44.802;10.332;2023-12-20T09:57:47;100817.31;;;7.91;63.20
78121;BME280;67585;44.802;10.332;2023-12-20T10:00:14;100829.75;;;8.09;63.17
78121;BME280;67585;44.802;10.332;2023-12-20T10:02:46;100850.22;;;8.27;62.58
78121;BME280;67585;44.802;10.332;2023-12-20T10:05:16;100847.06;;;8.30;62.50
78121;BME280;67585;44.802;10.332;2023-12-20T10:07:46;100838.78;;;8.32;61.50
78121;BME280;67585;44.802;10.332;2023-12-20T10:10:13;100833.16;;;8.33;61.93
78121;BME280;67585;44.802;10.332;2023-12-20T10:12:39;100825.22;;;8.39;62.61
78121;BME280;67585;44.802;10.332;2023-12-20T10:15:05;100810.72;;;8.51;61.22
78121;BME280;67585;44.802;10.332;2023-12-20T10:17:31;100816.19;;;8.56;61.50
78121;BME280;67585;44.802;10.332;2023-12-20T10:19:57;100832.44;;;8.50;61.26
78121;BME280;67585;44.802;10.332;2023-12-20T10:22:23;100822.75;;;8.49;61.81
78121;BME280;67585;44.802;10.332;2023-12-20T10:24:48;100824.91;;;8.64;61.13
78121;BME280;67585;44.802;10.332;2023-12-20T10:27:14;100810.75;;;8.40;61.68
78121;BME280;67585;44.802;10.332;2023-12-20T10:29:39;100818.44;;;8.48;62.08
78121;BME280;67585;44.802;10.332;2023-12-20T10:32:24;100815.41;;;8.32;62.57
78121;BME280;67585;44.802;10.332;2023-12-20T10:34:53;100810.84;;;8.16;63.71
78121;BME280;67585;44.802;10.332;2023-12-20T10:37:19;100792.28;;;8.14;63.40
78121;BME280;67585;44.802;10.332;2023-12-20T10:39:53;100787.44;;;8.28;63.45
78121;BME280;67585;44.802;10.332;2023-12-20T10:42:22;100808.28;;;8.50;63.94
78121;BME280;67585;44.802;10.332;2023-12-20T10:44:48;100802.72;;;8.40;62.96
78121;BME280;67585;44.802;10.332;2023-12-20T10:47:15;100788.13;;;8.35;64.19
78121;BME280;67585;44.802;10.332;2023-12-20T10:49:41;100795.91;;;8.49;63.72
78121;BME280;67585;44.802;10.332;2023-12-20T10:52:08;100791.22;;;8.56;64.22
78121;BME280;67585;44.802;10.332;2023-12-20T10:54:34;100780.22;;;8.58;64.97
78121;BME280;67585;44.802;10.332;2023-12-20T10:56:59;100790.16;;;8.57;64.38
78121;BME280;67585;44.802;10.332;2023-12-20T10:59:27;100790.06;;;8.69;64.16
78121;BME280;67585;44.802;10.332;2023-12-20T11:01:55;100791.03;;;8.91;63.74
78121;BME280;67585;44.802;10.332;2023-12-20T11:04:27;100793.78;;;8.80;63.86
78121;BME280;67585;44.802;10.332;2023-12-20T11:06:59;100781.72;;;8.82;65.87
78121;BME280;67585;44.802;10.332;2023-12-20T11:09:36;100796.69;;;8.95;66.70
78121;BME280;67585;44.802;10.332;2023-12-20T11:12:26;100788.00;;;8.88;67.28
78121;BME280;67585;44.802;10.332;2023-12-20T11:14:55;100782.38;;;8.89;66.68
78121;BME280;67585;44.802;10.332;2023-12-20T11:17:22;100785.75;;;8.51;67.69
78121;BME280;67585;44.802;10.332;2023-12-20T11:22:53;100762.84;;;8.20;69.10
78121;BME280;67585;44.802;10.332;2023-12-20T11:25:18;100758.66;;;8.24;68.37
78121;BME280;67585;44.802;10.332;2023-12-20T11:28:07;100781.00;;;8.41;68.68
78121;BME280;67585;44.802;10.332;2023-12-20T11:31:01;100774.69;;;8.47;69.34
78121;BME280;67585;44.802;10.332;2023-12-20T11:33:38;100762.47;;;8.56;69.29
78121;BME280;67585;44.802;10.332;2023-12-20T11:36:13;100772.75;;;8.31;69.40
78121;BME280;67585;44.802;10.332;2023-12-20T11:38:53;100760.31;;;8.13;70.10
78121;BME280;67585;44.802;10.332;2023-12-20T11:41:22;100776.13;;;8.26;69.90
78121;BME280;67585;44.802;10.332;2023-12-20T11:43:48;100774.97;;;8.22;69.66
78121;BME280;67585;44.802;10.332;2023-12-20T11:46:13;100771.66;;;8.32;70.06
78121;BME280;67585;44.802;10.332;2023-12-20T11:48:39;100755.78;;;8.13;70.11
78121;BME280;67585;44.802;10.332;2023-12-20T11:51:12;100761.34;;;8.24;69.57
78121;BME280;67585;44.802;10.332;2023-12-20T11:53:39;100752.06;;;8.31;68.81
78121;BME280;67585;44.802;10.332;2023-12-20T11:56:07;100762.75;;;8.55;69.39
78121;BME280;67585;44.802;10.332;2023-12-20T11:58:34;100760.44;;;8.47;68.30
78121;BME280;67585;44.802;10.332;2023-12-20T12:00:59;100770.84;;;8.43;67.76
78121;BME280;67585;44.802;10.332;2023-12-20T12:03:25;100759.81;;;8.28;68.04
78121;BME280;67585;44.802;10.332;2023-12-20T12:05:50;100755.63;;;7.91;69.04
78121;BME280;67585;44.802;10.332;2023-12-20T12:08:19;100751.44;;;8.12;69.14
78121;BME280;67585;44.802;10.332;2023-12-20T12:10:45;100745.72;;;8.21;67.19
78121;BME280;67585;44.802;10.332;2023-12-20T12:13:11;100743.13;;;8.26;67.50
78121;BME280;67585;44.802;10.332;2023-12-20T12:15:37;100755.91;;;8.35;67.42
78121;BME280;67585;44.802;10.332;2023-12-20T12:18:03;100752.66;;;8.33;67.52
78121;BME280;67585;44.802;10.332;2023-12-20T12:20:28;100698.47;;;8.20;65.95
78121;BME280;67585;44.802;10.332;2023-12-20T12:23:02;100735.34;;;8.70;65.90
78121;BME280;67585;44.802;10.332;2023-12-20T12:25:29;100758.34;;;8.66;65.69
78121;BME280;67585;44.802;10.332;2023-12-20T12:27:56;100753.38;;;8.58;65.69
78121;BME280;67585;44.802;10.332;2023-12-20T12:30:21;100748.25;;;8.73;65.92
78121;BME280;67585;44.802;10.332;2023-12-20T12:32:47;100739.63;;;8.71;65.48
78121;BME280;67585;44.802;10.332;2023-12-20T12:35:14;100718.53;;;8.46;66.34
78121;BME280;67585;44.802;10.332;2023-12-20T12:37:40;100730.19;;;8.68;65.60
78121;BME280;67585;44.802;10.332;2023-12-20T12:42:32;100704.06;;;8.64;64.13
78121;BME280;67585;44.802;10.332;2023-12-20T12:44:58;100686.66;;;8.04;63.90
78121;BME280;67585;44.802;10.332;2023-12-20T12:47:23;100700.91;;;8.50;64.55
78121;BME280;67585;44.802;10.332;2023-12-20T12:49:51;100699.59;;;8.52;64.20
78121;BME280;67585;44.802;10.332;2023-12-20T12:52:16;100656.47;;;8.42;64.21
78121;BME280;67585;44.802;10.332;2023-12-20T12:54:43;100692.75;;;8.78;64.32